Time;durP1;ratioP1;P1;durP2;ratioP2;P2;SDS_P1;SDS_P2;PMS_P1;PMS_P2;Temp;Humidity;BMP_temperature;BMP_pressure;BME280_temperature;BME280_humidity;BME280_pressure;Samples;Min_cycle;Max_cycle;Signal;HPM_P1;HPM_P2
2021/11/10 00:01:43;;;;;;;373.23;117.05;;;153.70;2252.80;;;;;;5030024;28;20045;-62
2021/11/10 00:04:09;;;;;;;230.25;88.93;;;153.70;2252.80;;;;;;5029855;28;20026;-60
2021/11/10 00:06:36;;;;;;;348.80;127.32;;;153.80;2252.80;;;;;;5029970;28;20034;-58
2021/11/10 00:09:03;;;;;;;319.63;126.18;;;153.60;2252.80;;;;;;5030006;28;20104;-57
2021/11/10 00:11:28;;;;;;;429.27;140.63;;;128.70;2252.80;;;;;;5030009;28;20080;-62
2021/11/10 00:13:54;;;;;;;384.60;133.70;;;128.80;2252.80;;;;;;5030016;28;20448;-60
2021/11/10 00:16:20;;;;;;;457.95;142.68;;;128.40;2252.80;;;;;;5029943;28;20084;-60
2021/11/10 00:18:47;;;;;;;324.73;109.35;;;128.40;2252.80;;;;;;5029719;28;20026;-58
2021/11/10 00:21:13;;;;;;;242.02;92.13;;;128.60;2252.80;;;;;;5029860;28;20042;-60
2021/11/10 00:23:38;;;;;;;211.75;91.47;;;128.70;2252.80;;;;;;5029740;28;20021;-60
2021/11/10 00:26:04;;;;;;;382.65;131.82;;;128.50;2252.80;;;;;;5033952;28;20026;-59
2021/11/10 00:28:30;;;;;;;336.23;118.22;;;128.40;2252.80;;;;;;5033604;28;20098;-61
2021/11/10 00:30:55;;;;;;;323.38;114.35;;;128.40;2252.80;;;;;;5033343;28;20462;-58
2021/11/10 00:33:23;;;;;;;273.38;99.50;;;128.50;2252.80;;;;;;5033852;28;20068;-59
2021/11/10 00:35:49;;;;;;;155.07;68.28;;;128.70;2252.80;;;;;;5033301;28;20037;-59
2021/11/10 00:38:15;;;;;;;352.33;109.53;;;128.80;2252.80;;;;;;5033580;28;20033;-59
2021/11/10 00:40:41;;;;;;;164.95;70.72;;;128.80;2252.80;;;;;;5033642;28;20128;-58
2021/11/10 00:43:06;;;;;;;332.70;114.35;;;128.70;2252.80;;;;;;5032432;28;20456;-59
2021/11/10 00:45:32;;;;;;;291.27;107.95;;;128.70;2252.80;;;;;;5033475;28;20128;-61
2021/11/10 00:47:58;;;;;;;338.05;118.30;;;128.50;2252.80;;;;;;5033412;28;20028;-62
2021/11/10 00:50:24;;;;;;;214.82;95.00;;;128.20;2252.80;;;;;;5033549;28;20460;-58
2021/11/10 00:52:50;;;;;;;239.63;96.55;;;128.30;2252.80;;;;;;5033353;28;20056;-61
2021/11/10 00:55:16;;;;;;;183.57;81.45;;;128.40;2252.80;;;;;;5033341;28;20053;-58
2021/11/10 00:57:41;;;;;;;250.10;91.80;;;128.50;2252.80;;;;;;5033184;28;20025;-62
2021/11/10 01:00:09;;;;;;;321.88;107.53;;;128.50;2252.80;;;;;;5032829;28;20052;-59
2021/11/10 01:02:35;;;;;;;223.55;90.90;;;128.60;2252.80;;;;;;5033153;28;20026;-62
2021/11/10 01:05:02;;;;;;;217.65;94.05;;;128.40;2252.80;;;;;;5033044;28;20025;-59
2021/11/10 01:07:27;;;;;;;399.05;133.60;;;128.60;2252.80;;;;;;5033016;28;20052;-61
2021/11/10 01:09:58;;;;;;;353.27;112.65;;;128.40;2252.80;;;;;;5033102;28;20388;-59
2021/11/10 01:12:24;;;;;;;271.52;96.32;;;128.30;2252.80;;;;;;5033270;28;20033;-61
2021/11/10 01:14:50;;;;;;;259.90;102.00;;;128.50;2252.80;;;;;;5032820;28;20460;-58
2021/11/10 01:17:16;;;;;;;321.58;109.90;;;128.60;2252.80;;;;;;5032859;28;20036;-60
2021/11/10 01:19:41;;;;;;;252.60;93.07;;;128.60;2252.80;;;;;;5032910;28;20490;-59
2021/11/10 01:22:07;;;;;;;321.77;117.15;;;128.40;2252.80;;;;;;5032538;28;20364;-60
2021/11/10 01:24:33;;;;;;;357.20;103.25;;;128.40;2252.80;;;;;;5033030;28;20060;-61
2021/11/10 01:26:59;;;;;;;266.27;85.55;;;128.40;2252.80;;;;;;5032465;28;20038;-60
2021/11/10 01:29:25;;;;;;;269.77;93.43;;;128.30;2252.80;;;;;;5032693;28;20103;-58
2021/11/10 01:31:51;;;;;;;383.65;115.35;;;128.40;2252.80;;;;;;5032615;28;20045;-63
2021/11/10 01:34:17;;;;;;;364.67;101.18;;;128.40;2252.80;;;;;;5032275;28;20028;-57
2021/11/10 01:36:44;;;;;;;313.73;97.07;;;128.40;2252.80;;;;;;5032208;28;20030;-62
2021/11/10 01:39:12;;;;;;;230.23;78.97;;;128.30;2252.80;;;;;;5032580;28;20423;-58
2021/11/10 01:41:47;;;;;;;122.40;50.63;;;128.30;2252.80;;;;;;5032449;28;20036;-60
2021/11/10 01:44:17;;;;;;;163.40;59.47;;;128.40;2252.80;;;;;;5032342;28;20112;-57
2021/11/10 01:46:43;;;;;;;159.70;49.60;;;128.40;2252.80;;;;;;5032560;28;20112;-59
2021/11/10 01:49:09;;;;;;;204.18;65.45;;;128.30;2252.80;;;;;;5032182;28;20109;-58
2021/11/10 01:51:43;;;;;;;261.88;81.32;;;128.00;2252.80;;;;;;5032299;28;20070;-58
2021/11/10 01:54:12;;;;;;;324.42;87.97;;;103.30;2227.20;;;;;;5032040;28;20041;-59
2021/11/10 01:56:39;;;;;;;247.40;72.35;;;103.10;2227.20;;;;;;5031929;28;20488;-59
2021/11/10 01:59:05;;;;;;;149.65;54.15;;;103.30;2227.20;;;;;;5032089;28;20033;-59
2021/11/10 02:01:31;;;;;;;270.42;89.85;;;103.30;2227.20;;;;;;5031985;28;20195;-58
2021/11/10 02:03:57;;;;;;;160.70;79.05;;;128.00;2252.80;;;;;;5031883;28;20526;-60
2021/11/10 02:06:23;;;;;;;239.77;107.32;;;128.10;2252.80;;;;;;5032459;28;20021;-57
2021/11/10 02:08:49;;;;;;;143.75;81.72;;;128.00;2252.80;;;;;;5031841;28;20033;-59
2021/11/10 02:11:15;;;;;;;136.88;72.93;;;103.30;2227.20;;;;;;5032114;28;20498;-60
2021/11/10 02:13:43;;;;;;;175.90;72.30;;;103.30;2227.20;;;;;;5031805;28;20459;-62
2021/11/10 02:16:10;;;;;;;225.77;77.88;;;103.30;2227.20;;;;;;5031485;28;20041;-60
2021/11/10 02:18:38;;;;;;;142.20;62.60;;;128.00;2252.80;;;;;;5031554;28;20017;-58
2021/11/10 02:21:09;;;;;;;208.25;83.22;;;128.00;2252.80;;;;;;5031893;28;20035;-60
2021/11/10 02:23:35;;;;;;;127.03;63.50;;;128.10;2252.80;;;;;;5031875;28;20092;-58
2021/11/10 02:26:04;;;;;;;258.92;95.15;;;128.20;2252.80;;;;;;5031774;28;20025;-59
2021/11/10 02:28:30;;;;;;;174.15;77.93;;;128.10;2252.80;;;;;;5031559;28;20056;-62
2021/11/10 02:30:56;;;;;;;175.63;69.82;;;128.20;2252.80;;;;;;5031153;28;20033;-58
2021/11/10 02:33:29;;;;;;;160.30;72.00;;;128.20;2252.80;;;;;;5031483;28;20476;-60
2021/11/10 02:36:03;;;;;;;222.65;86.43;;;128.40;2252.80;;;;;;5031828;28;20030;-59
2021/11/10 02:38:29;;;;;;;141.25;68.95;;;128.30;2252.80;;;;;;5031156;28;20030;-59
2021/11/10 02:40:58;;;;;;;180.15;78.20;;;128.30;2252.80;;;;;;5031503;28;20116;-58
2021/11/10 02:43:24;;;;;;;224.90;81.15;;;128.30;2252.80;;;;;;5031354;28;20463;-61
2021/11/10 02:45:50;;;;;;;262.02;85.63;;;128.30;2252.80;;;;;;5030837;28;20061;-58
2021/11/10 02:48:16;;;;;;;145.25;68.55;;;128.10;2252.80;;;;;;5030256;28;20053;-58
2021/11/10 02:50:42;;;;;;;214.23;79.22;;;128.10;2252.80;;;;;;5031062;28;20033;-59
2021/11/10 02:53:08;;;;;;;199.60;64.20;;;128.00;2252.80;;;;;;5031095;28;20021;-58
2021/11/10 02:55:34;;;;;;;211.18;76.82;;;128.10;2252.80;;;;;;5031048;28;20529;-59
2021/11/10 02:58:00;;;;;;;280.55;85.30;;;103.30;2227.20;;;;;;5030905;28;20022;-58
2021/11/10 03:00:27;;;;;;;254.85;67.55;;;128.10;2252.80;;;;;;5030555;28;20088;-58
2021/11/10 03:02:54;;;;;;;280.92;76.30;;;128.10;2252.80;;;;;;5031089;28;20526;-59
2021/11/10 03:05:21;;;;;;;290.02;79.75;;;128.00;2252.80;;;;;;5030686;28;20022;-59
2021/11/10 03:07:47;;;;;;;294.27;89.45;;;103.30;2227.20;;;;;;5030589;28;20522;-60
2021/11/10 03:10:13;;;;;;;283.35;83.68;;;103.20;2227.20;;;;;;5030804;28;20034;-59
2021/11/10 03:12:39;;;;;;;165.80;65.63;;;103.20;2227.20;;;;;;5030762;28;20021;-59
2021/11/10 03:15:06;;;;;;;199.80;64.97;;;103.20;2227.20;;;;;;5030811;28;20361;-58
2021/11/10 03:17:31;;;;;;;188.68;65.20;;;103.10;2227.20;;;;;;5030554;28;20029;-60
2021/11/10 03:19:57;;;;;;;208.38;75.47;;;103.10;2227.20;;;;;;5030845;28;20018;-60
2021/11/10 03:22:23;;;;;;;166.45;68.40;;;103.20;2227.20;;;;;;5030770;28;20030;-58
2021/11/10 03:24:49;;;;;;;125.10;54.40;;;103.00;2227.20;;;;;;5030399;28;20515;-59
2021/11/10 03:27:16;;;;;;;229.77;80.63;;;103.10;2227.20;;;;;;5030461;28;20064;-58
2021/11/10 03:29:42;;;;;;;179.70;64.30;;;103.00;2227.20;;;;;;5030416;28;20099;-58
2021/11/10 03:32:11;;;;;;;182.25;58.35;;;102.90;2227.20;;;;;;5030176;28;20426;-59
2021/11/10 03:34:37;;;;;;;221.55;65.93;;;102.90;2227.20;;;;;;5030539;28;20475;-60
2021/11/10 03:37:03;;;;;;;213.60;67.18;;;103.00;2227.20;;;;;;5030362;28;20444;-57
2021/11/10 03:39:29;;;;;;;276.23;80.32;;;102.90;2227.20;;;;;;5030092;28;20083;-60
2021/11/10 03:41:55;;;;;;;317.70;82.57;;;102.70;2227.20;;;;;;5030500;28;20109;-61
2021/11/10 03:44:21;;;;;;;121.38;45.45;;;102.50;2227.20;;;;;;5030330;28;20021;-58
2021/11/10 03:46:47;;;;;;;187.82;55.67;;;102.40;2227.20;;;;;;5029981;28;20108;-59
2021/11/10 03:49:14;;;;;;;181.60;57.60;;;102.40;2227.20;;;;;;5030252;28;20052;-58
2021/11/10 03:51:41;;;;;;;142.93;47.58;;;102.50;2227.20;;;;;;5029928;28;20052;-57
2021/11/10 03:54:07;;;;;;;214.93;58.55;;;102.50;2227.20;;;;;;5029956;28;20112;-58
2021/11/10 03:56:33;;;;;;;204.05;53.35;;;102.70;2227.20;;;;;;5030352;28;20060;-61
2021/11/10 03:58:59;;;;;;;311.60;69.45;;;102.80;2227.20;;;;;;5029747;28;20026;-58
2021/11/10 04:01:25;;;;;;;148.98;43.80;;;102.60;2227.20;;;;;;5030145;28;20450;-59
2021/11/10 04:03:50;;;;;;;159.98;51.15;;;102.80;2227.20;;;;;;5030099;28;20430;-61
2021/11/10 04:06:16;;;;;;;175.48;53.15;;;102.70;2227.20;;;;;;5029846;28;20030;-58
2021/11/10 04:08:42;;;;;;;234.13;61.15;;;102.80;2227.20;;;;;;5030084;28;20026;-58
2021/11/10 04:11:08;;;;;;;104.68;38.53;;;102.80;2227.20;;;;;;5029860;28;20391;-58
2021/11/10 04:13:34;;;;;;;120.93;39.58;;;102.90;2227.20;;;;;;5029964;28;20025;-58
2021/11/10 04:16:01;;;;;;;114.25;45.72;;;102.80;2227.20;;;;;;5029850;28;20060;-61
2021/11/10 04:18:32;;;;;;;299.35;74.80;;;102.70;2227.20;;;;;;5029589;28;20112;-57
2021/11/10 04:21:04;;;;;;;204.02;66.10;;;102.70;2227.20;;;;;;5029690;28;20491;-57
2021/11/10 04:23:33;;;;;;;209.20;59.53;;;102.80;2227.20;;;;;;5029855;28;20053;-59
2021/11/10 04:26:00;;;;;;;152.68;56.80;;;102.70;2227.20;;;;;;5029796;28;20263;-61
2021/11/10 04:28:27;;;;;;;163.55;78.13;;;102.70;2227.20;;;;;;5029645;28;20023;-59
2021/11/10 04:30:53;;;;;;;133.52;64.18;;;102.60;2227.20;;;;;;5029849;28;20096;-60
2021/11/10 04:33:20;;;;;;;227.40;75.43;;;102.50;2227.20;;;;;;5029606;28;20064;-60
2021/11/10 04:35:47;;;;;;;131.18;71.78;;;102.50;2227.20;;;;;;5029735;28;20029;-59
2021/11/10 04:38:13;;;;;;;171.95;59.45;;;102.60;2227.20;;;;;;5029670;28;20060;-59
2021/11/10 04:40:39;;;;;;;278.98;78.15;;;102.50;2227.20;;;;;;5029466;28;20072;-59
2021/11/10 04:43:05;;;;;;;211.43;69.63;;;102.40;2227.20;;;;;;5029710;28;20021;-58
2021/11/10 04:45:36;;;;;;;214.02;56.78;;;102.50;2227.20;;;;;;5029587;28;20598;-62
2021/11/10 04:48:02;;;;;;;177.68;60.88;;;102.60;2227.20;;;;;;5029623;28;20021;-58
2021/11/10 04:50:29;;;;;;;344.15;81.15;;;102.60;2227.20;;;;;;5029453;28;20038;-60
2021/11/10 04:52:55;;;;;;;281.50;64.57;;;102.60;2227.20;;;;;;5029927;28;20032;-57
2021/11/10 04:55:21;;;;;;;227.07;55.97;;;102.60;2227.20;;;;;;5029443;28;20022;-60
2021/11/10 04:57:47;;;;;;;291.92;76.70;;;102.70;2227.20;;;;;;5029369;28;20025;-58
2021/11/10 05:00:13;;;;;;;197.38;58.80;;;102.70;2227.20;;;;;;5029316;28;20052;-58
2021/11/10 05:02:40;;;;;;;223.00;65.80;;;102.80;2227.20;;;;;;5029065;28;20527;-58
2021/11/10 05:05:07;;;;;;;182.35;60.13;;;102.80;2227.20;;;;;;5029516;28;20026;-58
2021/11/10 05:07:34;;;;;;;293.30;85.07;;;102.80;2227.20;;;;;;5029786;28;20029;-60
2021/11/10 05:10:01;;;;;;;205.27;61.55;;;102.70;2227.20;;;;;;5029845;28;20513;-58
2021/11/10 05:12:28;;;;;;;249.55;71.22;;;102.50;2227.20;;;;;;5032861;28;20079;-58
2021/11/10 05:14:56;;;;;;;277.10;82.63;;;102.60;2227.20;;;;;;5033214;28;20481;-57
2021/11/10 05:17:26;;;;;;;235.23;81.13;;;102.60;2227.20;;;;;;5033101;28;20434;-60
2021/11/10 05:19:52;;;;;;;224.60;81.10;;;102.60;2227.20;;;;;;5033052;28;20090;-60
2021/11/10 05:22:18;;;;;;;380.15;118.18;;;102.60;2227.20;;;;;;5032717;28;20029;-59
2021/11/10 05:24:44;;;;;;;260.55;92.88;;;102.50;2227.20;;;;;;5032761;28;20065;-58
2021/11/10 05:27:10;;;;;;;306.20;104.38;;;102.50;2227.20;;;;;;5032537;28;20060;-59
2021/11/10 05:29:35;;;;;;;298.15;91.70;;;102.60;2227.20;;;;;;5032511;28;20033;-58
2021/11/10 05:32:01;;;;;;;229.73;76.22;;;102.70;2227.20;;;;;;5032471;28;20056;-59
2021/11/10 05:34:28;;;;;;;373.00;97.55;;;102.70;2227.20;;;;;;5032590;28;20048;-57
2021/11/10 05:36:53;;;;;;;243.85;92.57;;;102.70;2227.20;;;;;;5032723;28;20510;-59
2021/11/10 05:39:19;;;;;;;216.55;75.15;;;102.50;2227.20;;;;;;5032253;28;20038;-61
2021/11/10 05:41:46;;;;;;;226.75;76.38;;;102.40;2227.20;;;;;;5032461;28;20107;-61
2021/11/10 05:44:13;;;;;;;377.23;95.53;;;102.40;2227.20;;;;;;5032512;28;20029;-58
2021/11/10 05:46:40;;;;;;;300.02;99.15;;;102.50;2227.20;;;;;;5032230;28;20483;-59
2021/11/10 05:49:05;;;;;;;308.23;138.65;;;102.50;2227.20;;;;;;5032525;28;20357;-58
2021/11/10 05:51:32;;;;;;;244.43;90.93;;;102.50;2227.20;;;;;;5032213;28;20040;-57
2021/11/10 05:53:57;;;;;;;210.27;71.68;;;102.50;2227.20;;;;;;5032087;28;20083;-59
2021/11/10 05:56:26;;;;;;;263.90;93.55;;;102.70;2227.20;;;;;;5032468;28;20385;-57
2021/11/10 05:58:57;;;;;;;238.15;81.60;;;102.70;2227.20;;;;;;5032419;28;20025;-58
2021/11/10 06:01:23;;;;;;;180.00;79.00;;;102.60;2227.20;;;;;;5032238;28;20076;-58
2021/11/10 06:03:50;;;;;;;211.00;81.43;;;102.70;2227.20;;;;;;5032127;28;20163;-59
2021/11/10 06:06:16;;;;;;;189.27;82.18;;;102.70;2227.20;;;;;;5032164;28;20414;-59
2021/11/10 06:08:42;;;;;;;170.27;81.28;;;102.80;2227.20;;;;;;5032120;28;20108;-61
2021/11/10 06:11:09;;;;;;;244.38;81.22;;;102.80;2227.20;;;;;;5031612;28;20038;-61
2021/11/10 06:13:36;;;;;;;145.30;60.28;;;102.80;2227.20;;;;;;5032003;28;20041;-58
2021/11/10 06:16:03;;;;;;;219.05;82.07;;;102.80;2227.20;;;;;;5031760;28;20034;-58
2021/11/10 06:18:29;;;;;;;156.40;55.20;;;102.80;2227.20;;;;;;5031712;28;20033;-58
2021/11/10 06:20:59;;;;;;;211.57;107.78;;;103.00;2227.20;;;;;;5031904;28;20482;-57
2021/11/10 06:23:25;;;;;;;200.32;87.70;;;102.90;2227.20;;;;;;5032075;28;20021;-58
2021/11/10 06:25:51;;;;;;;170.98;85.22;;;103.00;2227.20;;;;;;5031835;28;20483;-58
2021/11/10 06:28:17;;;;;;;120.00;66.38;;;103.10;2227.20;;;;;;5031478;28;20025;-59
2021/11/10 06:30:43;;;;;;;109.43;64.18;;;103.20;2227.20;;;;;;5031389;28;20041;-59
2021/11/10 06:33:08;;;;;;;115.97;75.68;;;103.20;2227.20;;;;;;5031622;28;20036;-59
2021/11/10 06:35:34;;;;;;;108.05;64.90;;;103.30;2227.20;;;;;;5031819;28;20052;-62
2021/11/10 06:38:00;;;;;;;125.20;65.72;;;103.30;2227.20;;;;;;5031406;28;20113;-61
2021/11/10 06:40:26;;;;;;;136.13;64.18;;;128.00;2252.80;;;;;;5031165;28;20033;-61
2021/11/10 06:42:52;;;;;;;112.72;53.90;;;128.10;2252.80;;;;;;5031444;28;20468;-60
2021/11/10 06:45:18;;;;;;;109.70;55.92;;;128.30;2252.80;;;;;;5031102;28;20026;-56
2021/11/10 06:47:44;;;;;;;138.77;68.50;;;128.60;2252.80;;;;;;5031225;28;20112;-56
2021/11/10 06:50:11;;;;;;;147.57;59.70;;;128.50;2252.80;;;;;;5029646;28;20436;-60
2021/11/10 06:52:37;;;;;;;176.23;62.13;;;128.50;2252.80;;;;;;5030006;28;20525;-56
2021/11/10 06:55:04;;;;;;;126.82;67.93;;;128.70;2252.80;;;;;;5031078;28;20025;-60
2021/11/10 06:57:31;;;;;;;135.15;62.75;;;128.70;2252.80;;;;;;5030865;28;20033;-60
2021/11/10 06:59:57;;;;;;;178.75;74.68;;;128.80;2252.80;;;;;;5030490;28;20495;-63
2021/11/10 07:02:23;;;;;;;108.13;59.30;;;128.90;2252.80;;;;;;5030997;28;20562;-60
2021/11/10 07:04:49;;;;;;;113.65;64.20;;;128.90;2252.80;;;;;;5030947;28;20033;-58
2021/11/10 07:07:15;;;;;;;155.43;93.32;;;153.60;2252.80;;;;;;5031024;28;20064;-57
2021/11/10 07:09:41;;;;;;;235.73;90.72;;;153.60;2252.80;;;;;;5030734;28;20379;-60
2021/11/10 07:12:08;;;;;;;95.97;61.92;;;128.90;2252.80;;;;;;5030718;28;20116;-59
2021/11/10 07:14:34;;;;;;;132.38;64.88;;;153.80;2252.80;;;;;;5030712;28;20063;-60
2021/11/10 07:16:59;;;;;;;82.95;53.35;;;154.10;2252.80;;;;;;5030437;28;20061;-59
2021/11/10 07:19:25;;;;;;;159.07;74.18;;;154.40;2252.80;;;;;;5030668;28;20028;-58
2021/11/10 07:21:51;;;;;;;99.40;64.95;;;154.20;2252.80;;;;;;5030805;28;20028;-58
2021/11/10 07:24:17;;;;;;;128.23;82.20;;;154.50;2252.80;;;;;;5030643;28;20025;-58
2021/11/10 07:26:43;;;;;;;190.48;111.75;;;179.60;2252.80;;;;;;5030666;28;20063;-57
2021/11/10 07:29:09;;;;;;;164.35;105.70;;;179.20;2252.80;;;;;;5030251;28;20112;-60
2021/11/10 07:31:34;;;;;;;127.93;89.55;;;179.40;2252.80;;;;;;5029486;28;20108;-57
2021/11/10 07:34:01;;;;;;;115.68;86.53;;;205.00;2252.80;;;;;;5029760;28;20124;-59
2021/11/10 07:36:27;;;;;;;142.50;94.57;;;230.60;2252.80;;;;;;5030043;28;20483;-61
2021/11/10 07:38:55;;;;;;;192.15;132.68;;;231.30;2252.80;;;;;;5030471;28;20464;-61
2021/11/10 07:41:22;;;;;;;138.98;99.43;;;282.20;2278.40;;;;;;5030332;28;20499;-60
2021/11/10 07:43:52;;;;;;;118.10;94.53;;;307.90;2304.00;;;;;;5030212;28;20033;-59
2021/11/10 07:46:19;;;;;;;126.43;99.38;;;358.80;2329.60;;;;;;5029980;28;20036;-61
2021/11/10 07:48:49;;;;;;;114.50;88.80;;;384.20;2329.60;;;;;;5030519;28;20375;-60
2021/11/10 07:51:16;;;;;;;100.50;79.63;;;384.20;2329.60;;;;;;5030463;28;20037;-61
2021/11/10 07:53:42;;;;;;;114.20;87.70;;;409.60;2355.20;;;;;;5030142;28;20056;-58
2021/11/10 07:56:07;;;;;;;105.30;84.35;;;384.60;2329.60;;;;;;5029860;28;20025;-60
2021/11/10 07:58:34;;;;;;;98.75;79.28;;;384.80;2304.00;;;;;;5029970;28;20083;-62
2021/11/10 08:01:01;;;;;;;101.32;79.75;;;409.80;2304.00;;;;;;5029814;28;20128;-60
2021/11/10 08:03:26;;;;;;;91.22;74.88;;;410.40;2227.20;;;;;;5030073;28;20049;-61
2021/11/10 08:05:53;;;;;;;93.40;78.50;;;436.00;2124.80;;;;;;5030326;28;20057;-61
2021/11/10 08:08:19;;;;;;;82.78;72.22;;;461.60;2022.40;;;;;;5029847;28;20129;-61
2021/11/10 08:10:45;;;;;;;95.70;79.15;;;486.40;1971.20;;;;;;5029849;28;20104;-61
2021/11/10 08:13:11;;;;;;;95.70;84.85;;;461.50;2022.40;;;;;;5029947;28;20026;-61
2021/11/10 08:15:37;;;;;;;89.13;79.55;;;461.60;1996.80;;;;;;5029753;28;20039;-59
2021/11/10 08:18:04;;;;;;;90.72;80.85;;;486.90;1920.00;;;;;;5029980;28;20025;-62
2021/11/10 08:20:30;;;;;;;83.82;73.45;;;487.00;1894.40;;;;;;5029867;28;20040;-59
2021/11/10 08:22:56;;;;;;;94.63;84.20;;;486.80;1920.00;;;;;;5030100;28;20025;-61
2021/11/10 08:25:22;;;;;;;83.57;72.00;;;487.20;1817.60;;;;;;5029882;28;20156;-62
2021/11/10 08:27:48;;;;;;;78.35;68.80;;;486.70;1894.40;;;;;;5029849;28;20108;-60
2021/11/10 08:30:17;;;;;;;81.25;72.47;;;486.90;1894.40;;;;;;5029600;28;20460;-61
2021/11/10 08:32:44;;;;;;;73.05;65.13;;;461.60;1971.20;;;;;;5029772;28;20495;-59
2021/11/10 08:35:10;;;;;;;84.28;75.05;;;461.60;1996.80;;;;;;5029794;28;20029;-59
2021/11/10 08:37:36;;;;;;;85.10;75.68;;;486.40;1996.80;;;;;;5029919;28;20455;-62
2021/11/10 08:40:03;;;;;;;83.18;74.22;;;461.50;2022.40;;;;;;5029643;28;20021;-61
2021/11/10 08:42:35;;;;;;;84.50;75.63;;;436.00;2048.00;;;;;;5029656;28;20029;-60
2021/11/10 08:45:07;;;;;;;96.35;83.68;;;435.80;2073.60;;;;;;5030362;28;20021;-59
2021/11/10 08:47:34;;;;;;;73.78;65.70;;;435.60;2124.80;;;;;;5033492;28;20025;-61
2021/11/10 08:50:00;;;;;;;74.35;66.40;;;460.90;2099.20;;;;;;5033305;28;20025;-61
2021/11/10 08:52:29;;;;;;;72.45;63.30;;;486.50;2048.00;;;;;;5033120;28;20036;-59
2021/11/10 08:54:56;;;;;;;72.95;60.20;;;512.30;1894.40;;;;;;5033496;28;20096;-60
2021/11/10 08:57:22;;;;;;;73.30;65.45;;;512.30;1894.40;;;;;;5033530;28;20045;-62
2021/11/10 08:59:48;;;;;;;70.13;62.65;;;461.40;2022.40;;;;;;5032922;28;20054;-59
2021/11/10 09:02:13;;;;;;;75.00;66.68;;;461.40;2022.40;;;;;;5033334;28;20029;-62
2021/11/10 09:04:40;;;;;;;75.93;66.10;;;486.50;1996.80;;;;;;5032962;28;20509;-61
2021/11/10 09:07:07;;;;;;;91.28;79.05;;;461.50;1996.80;;;;;;5033366;28;20044;-60
2021/11/10 09:09:33;;;;;;;75.05;66.63;;;461.20;2022.40;;;;;;5033213;28;20415;-62
2021/11/10 09:11:58;;;;;;;78.93;70.47;;;436.00;2073.60;;;;;;5032799;28;20079;-58
2021/11/10 09:14:24;;;;;;;82.35;72.47;;;435.90;2073.60;;;;;;5033142;28;20030;-61
2021/11/10 09:16:50;;;;;;;87.45;78.03;;;435.20;2150.40;;;;;;5032853;28;20033;-60
2021/11/10 09:19:17;;;;;;;86.60;76.65;;;409.80;2227.20;;;;;;5032834;28;20407;-60
2021/11/10 09:21:43;;;;;;;74.40;65.90;;;409.90;2278.40;;;;;;5032935;28;20021;-61
2021/11/10 09:24:10;;;;;;;88.90;77.10;;;410.20;2201.60;;;;;;5032775;28;20048;-58
2021/11/10 09:26:37;;;;;;;83.03;73.38;;;384.90;2278.40;;;;;;5032784;28;20033;-59
2021/11/10 09:29:04;;;;;;;57.30;48.20;;;409.90;2252.80;;;;;;5032654;28;20041;-61
2021/11/10 09:31:30;;;;;;;31.42;24.55;;;409.90;2227.20;;;;;;5032272;28;20502;-59
2021/11/10 09:34:03;;;;;;;32.28;27.65;;;409.80;2227.20;;;;;;5032403;28;20025;-58
2021/11/10 09:36:29;;;;;;;19.88;16.77;;;410.20;2227.20;;;;;;5032510;28;20044;-61
2021/11/10 09:38:56;;;;;;;34.08;26.73;;;409.70;2201.60;;;;;;5032715;28;20026;-61
2021/11/10 09:41:22;;;;;;;29.33;24.65;;;384.90;2227.20;;;;;;5032573;28;20025;-61
2021/11/10 09:43:49;;;;;;;50.90;40.08;;;410.10;2227.20;;;;;;5032205;28;20515;-59
2021/11/10 09:46:14;;;;;;;32.20;26.25;;;384.90;2252.80;;;;;;5032305;28;20383;-61
2021/11/10 09:48:41;;;;;;;79.32;56.05;;;409.80;2252.80;;;;;;5032127;28;20022;-61
2021/11/10 09:51:07;;;;;;;93.63;71.13;;;409.90;2201.60;;;;;;5031967;28;20033;-60
2021/11/10 09:53:35;;;;;;;66.95;52.17;;;409.90;2201.60;;;;;;5032237;28;20106;-58
2021/11/10 09:56:01;;;;;;;30.52;25.23;;;435.40;2150.40;;;;;;5031712;28;20087;-61
2021/11/10 09:58:30;;;;;;;37.17;29.92;;;435.70;2099.20;;;;;;5031938;28;20017;-61
2021/11/10 10:01:07;;;;;;;25.10;19.42;;;435.80;2073.60;;;;;;5031698;28;20128;-58
2021/11/10 10:03:35;;;;;;;20.67;17.90;;;410.00;2201.60;;;;;;5031949;28;20392;-60
2021/11/10 10:06:01;;;;;;;18.65;13.70;;;409.90;2150.40;;;;;;5032174;28;20026;-60
2021/11/10 10:08:27;;;;;;;16.50;13.68;;;384.20;2227.20;;;;;;5031764;28;20032;-61
2021/11/10 10:10:53;;;;;;;22.98;18.35;;;359.30;2278.40;;;;;;5031879;28;20041;-58
2021/11/10 10:13:20;;;;;;;26.88;21.15;;;359.20;2304.00;;;;;;5031611;28;20152;-60
2021/11/10 10:15:48;;;;;;;59.47;42.47;;;359.20;2329.60;;;;;;5030540;28;20442;-60
2021/11/10 10:18:18;;;;;;;23.85;18.80;;;359.00;2329.60;;;;;;5031922;28;20025;-60
2021/11/10 10:20:50;;;;;;;28.33;20.30;;;359.20;2329.60;;;;;;5031806;28;20537;-60
2021/11/10 10:23:19;;;;;;;30.00;19.45;;;359.00;2329.60;;;;;;5031386;28;20389;-58
2021/11/10 10:25:46;;;;;;;19.65;14.80;;;358.80;2329.60;;;;;;5031707;28;20064;-61
2021/11/10 10:28:17;;;;;;;178.00;120.45;;;358.40;2329.60;;;;;;5031968;28;20071;-60
2021/11/10 10:30:48;;;;;;;18.20;13.63;;;358.50;2329.60;;;;;;5031615;28;20068;-57
2021/11/10 10:33:21;;;;;;;18.58;14.40;;;333.50;2329.60;;;;;;5031706;28;20053;-59
2021/11/10 10:35:47;;;;;;;22.20;16.83;;;333.20;2329.60;;;;;;5031301;28;20030;-61
2021/11/10 10:38:16;;;;;;;26.27;20.60;;;307.90;2304.00;;;;;;5031456;28;20021;-58
2021/11/10 10:40:45;;;;;;;30.02;21.73;;;308.10;2304.00;;;;;;5031363;28;20022;-59
2021/11/10 10:43:13;;;;;;;25.45;17.65;;;308.00;2304.00;;;;;;5031318;28;20029;-60
2021/11/10 10:45:42;;;;;;;28.45;19.02;;;308.00;2304.00;;;;;;5031224;28;20021;-60
2021/11/10 10:48:20;;;;;;;16.17;14.05;;;307.90;2304.00;;;;;;5031095;28;20036;-60
2021/11/10 10:50:53;;;;;;;82.82;53.88;;;307.80;2304.00;;;;;;5031191;28;20038;-61
2021/11/10 10:53:20;;;;;;;;;;;332.90;2329.60;;;;;;5031240;28;20032;-59
2021/11/10 10:55:49;;;;;;;27.17;19.52;;;332.90;2329.60;;;;;;5031034;28;19962;-61
2021/11/10 10:58:30;;;;;;;24.88;17.17;;;332.90;2329.60;;;;;;5031252;28;20029;-60
2021/11/10 11:00:57;;;;;;;21.65;14.23;;;333.00;2329.60;;;;;;5030845;28;20060;-59
2021/11/10 11:03:24;;;;;;;27.70;19.45;;;333.00;2329.60;;;;;;5031204;28;20361;-61
2021/11/10 11:05:50;;;;;;;23.73;17.95;;;332.90;2329.60;;;;;;5030855;28;20060;-60
2021/11/10 11:08:29;;;;;;;22.40;19.63;;;333.00;2329.60;;;;;;5030234;28;20433;-60
2021/11/10 11:10:57;;;;;;;18.85;16.40;;;332.90;2329.60;;;;;;5031052;28;20039;-58
2021/11/10 11:13:43;;;;;;;31.23;24.00;;;308.10;2304.00;;;;;;5031013;28;20021;-61
2021/11/10 11:16:09;;;;;;;19.17;16.08;;;332.80;2329.60;;;;;;5030587;28;20104;-61
2021/11/10 11:18:37;;;;;;;20.25;12.82;;;332.80;2329.60;;;;;;5030996;28;20072;-59
2021/11/10 11:21:25;;;;;;;22.40;15.82;;;308.10;2304.00;;;;;;5030772;28;20017;-59
2021/11/10 11:23:53;;;;;;;14.98;11.13;;;332.90;2329.60;;;;;;5030707;28;20555;-59
2021/11/10 11:26:38;;;;;;;44.67;26.00;;;332.90;2329.60;;;;;;5030450;28;20057;-57
2021/11/10 11:29:25;;;;;;;33.00;23.13;;;333.10;2329.60;;;;;;5030480;28;20033;-58
2021/11/10 11:31:54;;;;;;;22.58;14.95;;;333.10;2329.60;;;;;;5030483;28;20047;-59
2021/11/10 11:34:21;;;;;;;30.05;21.58;;;333.40;2329.60;;;;;;5030581;28;20087;-61
2021/11/10 11:36:49;;;;;;;32.45;24.23;;;333.40;2329.60;;;;;;5030224;28;20052;-58
2021/11/10 11:39:15;;;;;;;17.45;12.43;;;333.30;2329.60;;;;;;5030375;28;20048;-61
2021/11/10 11:41:41;;;;;;;26.52;19.08;;;333.20;2329.60;;;;;;5030344;28;20029;-61
2021/11/10 11:44:07;;;;;;;19.13;13.35;;;333.30;2329.60;;;;;;5030262;28;20052;-58
2021/11/10 11:46:35;;;;;;;19.58;14.52;;;333.30;2329.60;;;;;;5030265;28;20367;-58
2021/11/10 11:49:01;;;;;;;31.70;23.88;;;333.30;2329.60;;;;;;5030274;28;20049;-59
2021/11/10 11:51:27;;;;;;;25.13;18.42;;;333.30;2329.60;;;;;;5030023;28;20480;-59
2021/11/10 11:53:56;;;;;;;25.02;20.38;;;333.20;2329.60;;;;;;5030394;28;20030;-58